Domov               UVHVVR             MKGP            O straneh              
ZDRAVSTVENO VARSTVO RASTLIN
  MREŽA AGROMET. POSTAJ
 ► PROGNOSTIČNA OBVESTILA
AGROMETEOROLOŠKI PODATKI -
ARSO
OBVLADOVANJE TVEGANJ ZARADI
NEUGODNIH VREMENSKIH RAZMER
  ► NARAVNE NESREČE
  ► SUŠA/MOČA
  ► NAMAKANJE
  ► ŽLED (gozdarstvo)
KARTOGRAFSKI PRIKAZI
SPLETNE POVEZAVE
PROJEKTI IN PUBLIKACIJE

AGROMETEOROLOŠKA MREŽA: VREMENSKE POSTAJE IN FENOLOŠKA OPAZOVANJA

Pregled podatkov za lokacijo Zbigovci, meteorološka postaja 25164

Pregled senzorjev na lokaciji

ID Ime Zadnja
vrednost
Datum in čas
zadnje
spremembe
(Lokalni čas)
Tip
senzorja
1931 Omočenost lista (U) 0 U 24.2.2021 19:00 A730WET
1930 Padavine (mm) 0 mm 24.2.2021 19:00 Generic 0.2 mm
1932 Relativna zračna vlaga (1,5 m) (%RH) 41 %RH 24.2.2021 19:00 Generic 0 - 100 %
1933 Temperatura (2 m) (°C) 15.1 °C 24.2.2021 19:00 Generic -40 - +60 °C

Pregled podatkov zadnjih 24 ur

Zap.
št.
Datum in čas
(Centralno
evropski čas)
Zbigovci
Omočenost
lista
Padavine Relativna
zračna
vlaga
(1,5
m)
Temperatura
(2
m)
1 24.2.2021 19:00 0 0 40.7 15.1
2 24.2.2021 18:30 0 0 38.2 15.6
3 24.2.2021 18:00 0 0 36.9 16.2
4 24.2.2021 17:30 0 0 37.7 16.8
5 24.2.2021 17:00 0 0 36 17.8
6 24.2.2021 16:30 0 0 32.9 18.7
7 24.2.2021 16:00 0 0 32.2 19.2
8 24.2.2021 15:30 0 0 33.6 19.4
9 24.2.2021 15:00 0 0 34.2 19.5
10 24.2.2021 14:30 0 0 33.2 19.6
11 24.2.2021 14:00 0 0 32.7 19.7
12 24.2.2021 13:30 0 0 34.2 19.1
13 24.2.2021 13:00 0 0 37 18.6
14 24.2.2021 12:30 0 0 37.5 17.7
15 24.2.2021 12:00 0 0 39.2 16.7
16 24.2.2021 11:30 0 0 41.7 15.4
17 24.2.2021 11:00 0 0 45.6 14
18 24.2.2021 10:30 0 0 49.5 12.6
19 24.2.2021 10:00 0 0 54.1 10.9
20 24.2.2021 09:30 0 0 57.6 9.5
21 24.2.2021 09:00 0 0 57.9 9
22 24.2.2021 08:30 0 0 61.2 7.6
23 24.2.2021 08:00 0 0 62.2 7.1
24 24.2.2021 07:30 0 0 66.3 6.1
25 24.2.2021 07:00 0 0 63.2 6.8
26 24.2.2021 06:30 0 0 63.7 6.9
27 24.2.2021 06:00 0 0 70.1 5.8
28 24.2.2021 05:30 0 0 66 6.8
29 24.2.2021 05:00 0 0 68.9 6.6
30 24.2.2021 04:30 0 0 71.2 6.5
31 24.2.2021 04:00 0 0 70.8 7.2
32 24.2.2021 03:30 0 0 76.7 6.8
33 24.2.2021 03:00 0 0 77.8 6.1
34 24.2.2021 02:30 0 0 75.8 6.6
35 24.2.2021 02:00 0 0 58.1 9.5
36 24.2.2021 01:30 0 0 55.8 10.5
37 24.2.2021 01:00 0 0 57.1 10.6
38 24.2.2021 00:30 0 0 65.2 10.5
39 24.2.2021 00:00 0 0 69.9 10.2
40 23.2.2021 23:30 0 0 70.6 10.2
41 23.2.2021 23:00 0 0 72.7 9.9
42 23.2.2021 22:30 0 0 72.5 10.3
43 23.2.2021 22:00 0 0 71.8 10.5
44 23.2.2021 21:30 0 0 69.1 11.1
45 23.2.2021 21:00 0 0 68.2 11.4
46 23.2.2021 20:30 0 0 68.1 11.3
47 23.2.2021 20:00 0 0 65.3 11.9
© 2011 Ministrstvo za kmetijstvo, gozdarstvo in prehrano. Vse pravice pridržane.